sensor_id;sensor_type;location;lat;lon;timestamp;temperature;humidity
9371;DHT22;4725;48.384;8.984;2022-09-09T00:00:19;13.40;99.90
9371;DHT22;4725;48.384;8.984;2022-09-09T00:02:52;13.30;99.90
9371;DHT22;4725;48.384;8.984;2022-09-09T00:05:29;13.20;99.90
9371;DHT22;4725;48.384;8.984;2022-09-09T00:08:00;13.10;99.90
9371;DHT22;4725;48.384;8.984;2022-09-09T00:10:32;13.00;99.90
9371;DHT22;4725;48.384;8.984;2022-09-09T00:13:05;12.90;99.90
9371;DHT22;4725;48.384;8.984;2022-09-09T00:15:40;12.80;99.90
9371;DHT22;4725;48.384;8.984;2022-09-09T00:18:17;12.80;99.90
9371;DHT22;4725;48.384;8.984;2022-09-09T00:20:54;12.70;99.90
9371;DHT22;4725;48.384;8.984;2022-09-09T00:23:25;12.70;99.90
9371;DHT22;4725;48.384;8.984;2022-09-09T00:25:59;12.70;99.90
9371;DHT22;4725;48.384;8.984;2022-09-09T00:28:29;12.70;99.90
9371;DHT22;4725;48.384;8.984;2022-09-09T00:31:01;12.70;99.90
9371;DHT22;4725;48.384;8.984;2022-09-09T00:33:35;12.70;99.90
9371;DHT22;4725;48.384;8.984;2022-09-09T00:36:12;12.90;99.90
9371;DHT22;4725;48.384;8.984;2022-09-09T00:38:43;13.00;99.90
9371;DHT22;4725;48.384;8.984;2022-09-09T00:41:14;13.10;99.90
9371;DHT22;4725;48.384;8.984;2022-09-09T00:43:49;13.10;99.90
9371;DHT22;4725;48.384;8.984;2022-09-09T00:46:38;13.10;99.90
9371;DHT22;4725;48.384;8.984;2022-09-09T00:49:15;12.90;99.90
9371;DHT22;4725;48.384;8.984;2022-09-09T00:51:51;12.80;99.90
9371;DHT22;4725;48.384;8.984;2022-09-09T00:54:31;12.70;99.90
9371;DHT22;4725;48.384;8.984;2022-09-09T00:57:10;12.60;99.90
9371;DHT22;4725;48.384;8.984;2022-09-09T00:59:47;12.60;99.90
9371;DHT22;4725;48.384;8.984;2022-09-09T01:02:25;12.70;99.90
9371;DHT22;4725;48.384;8.984;2022-09-09T01:04:53;12.70;99.90
9371;DHT22;4725;48.384;8.984;2022-09-09T01:07:23;12.80;99.90
9371;DHT22;4725;48.384;8.984;2022-09-09T01:09:56;12.70;99.90
9371;DHT22;4725;48.384;8.984;2022-09-09T01:12:33;12.70;99.90
9371;DHT22;4725;48.384;8.984;2022-09-09T01:15:08;12.60;99.90
9371;DHT22;4725;48.384;8.984;2022-09-09T01:17:46;12.60;99.90
9371;DHT22;4725;48.384;8.984;2022-09-09T01:20:17;12.50;99.90
9371;DHT22;4725;48.384;8.984;2022-09-09T01:22:57;12.50;99.90
9371;DHT22;4725;48.384;8.984;2022-09-09T01:25:30;12.60;99.90
9371;DHT22;4725;48.384;8.984;2022-09-09T01:28:02;12.60;99.90
9371;DHT22;4725;48.384;8.984;2022-09-09T01:30:30;12.70;99.90
9371;DHT22;4725;48.384;8.984;2022-09-09T01:32:59;12.60;99.90
9371;DHT22;4725;48.384;8.984;2022-09-09T01:35:36;12.60;99.90
9371;DHT22;4725;48.384;8.984;2022-09-09T01:38:05;12.60;99.90
9371;DHT22;4725;48.384;8.984;2022-09-09T01:40:32;12.60;99.90
9371;DHT22;4725;48.384;8.984;2022-09-09T01:43:01;12.60;99.90
9371;DHT22;4725;48.384;8.984;2022-09-09T01:45:28;12.70;99.90
9371;DHT22;4725;48.384;8.984;2022-09-09T01:47:56;12.90;99.90
9371;DHT22;4725;48.384;8.984;2022-09-09T01:50:23;12.90;99.90
9371;DHT22;4725;48.384;8.984;2022-09-09T01:52:54;12.90;99.90
9371;DHT22;4725;48.384;8.984;2022-09-09T01:55:29;13.00;99.90
9371;DHT22;4725;48.384;8.984;2022-09-09T02:00:53;13.00;99.90
9371;DHT22;4725;48.384;8.984;2022-09-09T02:03:26;13.00;99.90
9371;DHT22;4725;48.384;8.984;2022-09-09T02:06:00;13.10;99.90
9371;DHT22;4725;48.384;8.984;2022-09-09T02:08:36;13.20;99.90
9371;DHT22;4725;48.384;8.984;2022-09-09T02:11:07;13.20;99.90
9371;DHT22;4725;48.384;8.984;2022-09-09T02:13:37;13.20;99.90
9371;DHT22;4725;48.384;8.984;2022-09-09T02:16:08;13.20;99.90
9371;DHT22;4725;48.384;8.984;2022-09-09T02:18:40;13.20;99.90
9371;DHT22;4725;48.384;8.984;2022-09-09T02:21:10;13.30;99.90
9371;DHT22;4725;48.384;8.984;2022-09-09T02:23:40;13.40;99.90
9371;DHT22;4725;48.384;8.984;2022-09-09T02:26:10;13.40;99.90
9371;DHT22;4725;48.384;8.984;2022-09-09T02:28:40;13.40;99.90
9371;DHT22;4725;48.384;8.984;2022-09-09T02:31:09;13.50;99.90
9371;DHT22;4725;48.384;8.984;2022-09-09T02:33:40;13.50;99.90
9371;DHT22;4725;48.384;8.984;2022-09-09T02:36:08;13.60;99.90
9371;DHT22;4725;48.384;8.984;2022-09-09T02:38:40;13.70;99.90
9371;DHT22;4725;48.384;8.984;2022-09-09T02:41:09;13.90;99.90
9371;DHT22;4725;48.384;8.984;2022-09-09T02:43:36;13.90;99.90
9371;DHT22;4725;48.384;8.984;2022-09-09T02:46:12;14.00;99.90
9371;DHT22;4725;48.384;8.984;2022-09-09T02:48:47;14.00;99.90
9371;DHT22;4725;48.384;8.984;2022-09-09T02:51:23;13.90;99.90
9371;DHT22;4725;48.384;8.984;2022-09-09T02:53:58;13.80;99.90
9371;DHT22;4725;48.384;8.984;2022-09-09T02:56:30;13.40;99.90
9371;DHT22;4725;48.384;8.984;2022-09-09T02:58:59;13.10;99.90
9371;DHT22;4725;48.384;8.984;2022-09-09T03:01:27;13.00;99.90
9371;DHT22;4725;48.384;8.984;2022-09-09T03:03:54;12.90;99.90
9371;DHT22;4725;48.384;8.984;2022-09-09T03:06:21;12.90;99.90
9371;DHT22;4725;48.384;8.984;2022-09-09T03:08:48;12.90;99.90
9371;DHT22;4725;48.384;8.984;2022-09-09T03:11:15;12.90;99.90
9371;DHT22;4725;48.384;8.984;2022-09-09T03:13:42;12.80;99.90
9371;DHT22;4725;48.384;8.984;2022-09-09T03:16:09;12.70;99.90
9371;DHT22;4725;48.384;8.984;2022-09-09T03:18:38;12.50;99.90
9371;DHT22;4725;48.384;8.984;2022-09-09T03:21:05;12.40;99.90
9371;DHT22;4725;48.384;8.984;2022-09-09T03:23:32;12.40;99.90
9371;DHT22;4725;48.384;8.984;2022-09-09T03:25:59;12.40;99.90
9371;DHT22;4725;48.384;8.984;2022-09-09T03:28:26;12.30;99.90
9371;DHT22;4725;48.384;8.984;2022-09-09T03:30:59;12.30;99.90
9371;DHT22;4725;48.384;8.984;2022-09-09T03:33:26;12.20;99.90
9371;DHT22;4725;48.384;8.984;2022-09-09T03:35:55;12.20;99.90
9371;DHT22;4725;48.384;8.984;2022-09-09T03:38:22;12.30;99.90
9371;DHT22;4725;48.384;8.984;2022-09-09T03:40:50;12.30;99.90
9371;DHT22;4725;48.384;8.984;2022-09-09T03:43:20;12.20;99.90
9371;DHT22;4725;48.384;8.984;2022-09-09T03:45:48;12.10;99.90
9371;DHT22;4725;48.384;8.984;2022-09-09T03:48:15;12.10;99.90
9371;DHT22;4725;48.384;8.984;2022-09-09T03:50:44;12.10;99.90
9371;DHT22;4725;48.384;8.984;2022-09-09T03:53:14;12.00;99.90
9371;DHT22;4725;48.384;8.984;2022-09-09T03:55:44;12.00;99.90
9371;DHT22;4725;48.384;8.984;2022-09-09T03:58:11;11.90;99.90
9371;DHT22;4725;48.384;8.984;2022-09-09T04:00:38;12.00;99.90
9371;DHT22;4725;48.384;8.984;2022-09-09T04:03:07;12.00;99.90
9371;DHT22;4725;48.384;8.984;2022-09-09T04:05:34;12.10;99.90
9371;DHT22;4725;48.384;8.984;2022-09-09T04:08:05;12.10;99.90
9371;DHT22;4725;48.384;8.984;2022-09-09T04:10:34;12.10;99.90
9371;DHT22;4725;48.384;8.984;2022-09-09T04:13:01;12.10;99.90
9371;DHT22;4725;48.384;8.984;2022-09-09T04:15:28;12.20;99.90
9371;DHT22;4725;48.384;8.984;2022-09-09T04:17:55;12.20;99.90
9371;DHT22;4725;48.384;8.984;2022-09-09T04:20:22;12.30;99.90
9371;DHT22;4725;48.384;8.984;2022-09-09T04:22:50;12.20;99.90
9371;DHT22;4725;48.384;8.984;2022-09-09T04:25:18;11.70;99.90
9371;DHT22;4725;48.384;8.984;2022-09-09T04:27:47;12.20;99.90
9371;DHT22;4725;48.384;8.984;2022-09-09T04:30:17;12.20;99.90
9371;DHT22;4725;48.384;8.984;2022-09-09T04:32:44;12.30;99.90
9371;DHT22;4725;48.384;8.984;2022-09-09T04:35:11;12.20;99.90
9371;DHT22;4725;48.384;8.984;2022-09-09T04:37:38;12.30;99.90
9371;DHT22;4725;48.384;8.984;2022-09-09T04:40:06;12.30;99.90
9371;DHT22;4725;48.384;8.984;2022-09-09T04:42:35;14.40;99.90
9371;DHT22;4725;48.384;8.984;2022-09-09T04:45:04;12.30;99.90
9371;DHT22;4725;48.384;8.984;2022-09-09T04:47:31;12.40;99.90
9371;DHT22;4725;48.384;8.984;2022-09-09T04:50:00;12.50;99.90
9371;DHT22;4725;48.384;8.984;2022-09-09T04:52:26;12.60;99.90
9371;DHT22;4725;48.384;8.984;2022-09-09T04:54:53;12.60;99.90
9371;DHT22;4725;48.384;8.984;2022-09-09T04:57:20;12.60;99.90
9371;DHT22;4725;48.384;8.984;2022-09-09T04:59:47;12.60;99.90
9371;DHT22;4725;48.384;8.984;2022-09-09T05:02:15;12.50;99.90
9371;DHT22;4725;48.384;8.984;2022-09-09T05:04:42;10.80;99.90
9371;DHT22;4725;48.384;8.984;2022-09-09T05:07:09;12.50;99.90
9371;DHT22;4725;48.384;8.984;2022-09-09T05:09:36;12.50;99.90
9371;DHT22;4725;48.384;8.984;2022-09-09T05:12:03;12.50;99.90
9371;DHT22;4725;48.384;8.984;2022-09-09T05:14:30;12.50;99.90
9371;DHT22;4725;48.384;8.984;2022-09-09T05:16:57;12.50;99.90
9371;DHT22;4725;48.384;8.984;2022-09-09T05:19:25;12.50;99.90
9371;DHT22;4725;48.384;8.984;2022-09-09T05:21:52;12.50;99.90
9371;DHT22;4725;48.384;8.984;2022-09-09T05:24:19;12.50;99.90
9371;DHT22;4725;48.384;8.984;2022-09-09T05:26:48;12.50;99.90
9371;DHT22;4725;48.384;8.984;2022-09-09T05:29:15;12.50;99.90
9371;DHT22;4725;48.384;8.984;2022-09-09T05:31:45;12.60;99.90
9371;DHT22;4725;48.384;8.984;2022-09-09T05:34:12;12.50;99.90
9371;DHT22;4725;48.384;8.984;2022-09-09T05:36:41;12.60;99.90
9371;DHT22;4725;48.384;8.984;2022-09-09T05:39:07;12.60;99.90
9371;DHT22;4725;48.384;8.984;2022-09-09T05:41:34;12.80;99.90
9371;DHT22;4725;48.384;8.984;2022-09-09T05:44:02;12.80;99.90
9371;DHT22;4725;48.384;8.984;2022-09-09T05:46:29;12.80;99.90
9371;DHT22;4725;48.384;8.984;2022-09-09T05:48:56;13.00;99.90
9371;DHT22;4725;48.384;8.984;2022-09-09T05:51:25;13.10;99.90
9371;DHT22;4725;48.384;8.984;2022-09-09T05:53:53;13.00;99.90
9371;DHT22;4725;48.384;8.984;2022-09-09T05:56:25;13.10;99.90
9371;DHT22;4725;48.384;8.984;2022-09-09T05:58:53;13.20;99.90
9371;DHT22;4725;48.384;8.984;2022-09-09T06:01:22;13.30;99.90
9371;DHT22;4725;48.384;8.984;2022-09-09T06:03:50;13.30;99.90
9371;DHT22;4725;48.384;8.984;2022-09-09T06:06:19;13.40;99.90
9371;DHT22;4725;48.384;8.984;2022-09-09T06:08:48;13.50;99.90
9371;DHT22;4725;48.384;8.984;2022-09-09T06:11:20;13.60;99.90
9371;DHT22;4725;48.384;8.984;2022-09-09T06:13:47;13.60;99.90
9371;DHT22;4725;48.384;8.984;2022-09-09T06:16:18;13.70;99.90
9371;DHT22;4725;48.384;8.984;2022-09-09T06:18:46;13.80;99.90
9371;DHT22;4725;48.384;8.984;2022-09-09T06:21:16;13.90;99.90
9371;DHT22;4725;48.384;8.984;2022-09-09T06:23:44;13.90;99.90
9371;DHT22;4725;48.384;8.984;2022-09-09T06:26:13;13.90;99.90
9371;DHT22;4725;48.384;8.984;2022-09-09T06:28:43;14.00;99.90
9371;DHT22;4725;48.384;8.984;2022-09-09T06:31:11;14.00;99.90
9371;DHT22;4725;48.384;8.984;2022-09-09T06:33:41;14.00;99.90
9371;DHT22;4725;48.384;8.984;2022-09-09T06:36:11;14.10;99.90
9371;DHT22;4725;48.384;8.984;2022-09-09T06:38:39;14.10;99.90
9371;DHT22;4725;48.384;8.984;2022-09-09T06:41:06;14.20;99.90
9371;DHT22;4725;48.384;8.984;2022-09-09T06:43:34;14.20;99.90
9371;DHT22;4725;48.384;8.984;2022-09-09T06:46:05;14.40;99.90
9371;DHT22;4725;48.384;8.984;2022-09-09T06:48:33;14.40;99.90
9371;DHT22;4725;48.384;8.984;2022-09-09T06:51:02;14.50;99.90
9371;DHT22;4725;48.384;8.984;2022-09-09T06:53:29;14.50;99.90
9371;DHT22;4725;48.384;8.984;2022-09-09T06:55:59;14.60;99.90
9371;DHT22;4725;48.384;8.984;2022-09-09T06:58:26;14.60;99.90
9371;DHT22;4725;48.384;8.984;2022-09-09T07:01:03;14.90;99.90
9371;DHT22;4725;48.384;8.984;2022-09-09T07:03:30;14.80;99.90
9371;DHT22;4725;48.384;8.984;2022-09-09T07:05:57;15.00;99.90
9371;DHT22;4725;48.384;8.984;2022-09-09T07:08:24;15.10;99.90
9371;DHT22;4725;48.384;8.984;2022-09-09T07:10:52;15.10;99.90
9371;DHT22;4725;48.384;8.984;2022-09-09T07:13:23;17.00;99.90
9371;DHT22;4725;48.384;8.984;2022-09-09T07:15:51;15.30;99.90
9371;DHT22;4725;48.384;8.984;2022-09-09T07:18:19;15.20;99.90
9371;DHT22;4725;48.384;8.984;2022-09-09T07:20:53;15.40;99.90
9371;DHT22;4725;48.384;8.984;2022-09-09T07:23:20;15.40;99.90
9371;DHT22;4725;48.384;8.984;2022-09-09T07:25:47;15.60;99.90
9371;DHT22;4725;48.384;8.984;2022-09-09T07:28:14;15.70;99.90
9371;DHT22;4725;48.384;8.984;2022-09-09T07:30:41;15.80;99.90
9371;DHT22;4725;48.384;8.984;2022-09-09T07:33:08;15.80;99.90
9371;DHT22;4725;48.384;8.984;2022-09-09T07:35:37;16.00;99.90
9371;DHT22;4725;48.384;8.984;2022-09-09T07:38:04;15.90;99.90
9371;DHT22;4725;48.384;8.984;2022-09-09T07:40:32;16.00;99.90
9371;DHT22;4725;48.384;8.984;2022-09-09T07:42:59;16.10;99.90
9371;DHT22;4725;48.384;8.984;2022-09-09T07:45:26;16.00;99.90
9371;DHT22;4725;48.384;8.984;2022-09-09T07:47:54;16.10;99.90
9371;DHT22;4725;48.384;8.984;2022-09-09T07:50:22;16.10;99.90
9371;DHT22;4725;48.384;8.984;2022-09-09T07:52:51;16.20;99.90
9371;DHT22;4725;48.384;8.984;2022-09-09T07:55:20;16.30;99.90
9371;DHT22;4725;48.384;8.984;2022-09-09T07:57:47;16.40;99.90
9371;DHT22;4725;48.384;8.984;2022-09-09T08:00:15;16.50;99.90
9371;DHT22;4725;48.384;8.984;2022-09-09T08:02:42;16.40;99.90
9371;DHT22;4725;48.384;8.984;2022-09-09T08:05:08;16.30;99.90
9371;DHT22;4725;48.384;8.984;2022-09-09T08:07:36;16.20;99.90
9371;DHT22;4725;48.384;8.984;2022-09-09T08:10:05;16.10;99.90
9371;DHT22;4725;48.384;8.984;2022-09-09T08:12:32;15.80;99.90
9371;DHT22;4725;48.384;8.984;2022-09-09T08:14:59;15.80;99.90
9371;DHT22;4725;48.384;8.984;2022-09-09T08:17:26;15.70;99.90
9371;DHT22;4725;48.384;8.984;2022-09-09T08:19:53;15.70;99.90
9371;DHT22;4725;48.384;8.984;2022-09-09T08:22:20;15.80;99.90
9371;DHT22;4725;48.384;8.984;2022-09-09T08:24:47;15.80;99.90
9371;DHT22;4725;48.384;8.984;2022-09-09T08:27:15;15.80;99.90
9371;DHT22;4725;48.384;8.984;2022-09-09T08:29:42;15.80;99.90
9371;DHT22;4725;48.384;8.984;2022-09-09T08:32:10;15.90;99.90
9371;DHT22;4725;48.384;8.984;2022-09-09T08:34:37;16.00;99.90
9371;DHT22;4725;48.384;8.984;2022-09-09T08:37:04;16.10;99.90
9371;DHT22;4725;48.384;8.984;2022-09-09T08:39:31;16.30;99.90
9371;DHT22;4725;48.384;8.984;2022-09-09T08:42:32;16.50;99.90
9371;DHT22;4725;48.384;8.984;2022-09-09T08:45:18;16.50;99.90
9371;DHT22;4725;48.384;8.984;2022-09-09T08:48:00;16.80;99.90
9371;DHT22;4725;48.384;8.984;2022-09-09T08:50:35;16.90;99.90
9371;DHT22;4725;48.384;8.984;2022-09-09T08:53:08;17.10;99.90
9371;DHT22;4725;48.384;8.984;2022-09-09T08:55:41;17.10;99.90
9371;DHT22;4725;48.384;8.984;2022-09-09T08:58:15;16.90;99.90
9371;DHT22;4725;48.384;8.984;2022-09-09T09:00:57;16.80;99.90
9371;DHT22;4725;48.384;8.984;2022-09-09T09:03:38;16.90;99.90
9371;DHT22;4725;48.384;8.984;2022-09-09T09:06:17;18.00;99.90
9371;DHT22;4725;48.384;8.984;2022-09-09T09:08:50;17.50;99.90
9371;DHT22;4725;48.384;8.984;2022-09-09T09:11:18;18.10;99.90
9371;DHT22;4725;48.384;8.984;2022-09-09T09:13:51;18.10;99.90
9371;DHT22;4725;48.384;8.984;2022-09-09T09:16:27;18.20;99.90
9371;DHT22;4725;48.384;8.984;2022-09-09T09:18:58;18.60;99.90
9371;DHT22;4725;48.384;8.984;2022-09-09T09:21:34;18.80;99.90
9371;DHT22;4725;48.384;8.984;2022-09-09T09:24:05;18.70;99.90
9371;DHT22;4725;48.384;8.984;2022-09-09T09:26:35;18.80;99.90
9371;DHT22;4725;48.384;8.984;2022-09-09T09:29:10;19.10;99.90
9371;DHT22;4725;48.384;8.984;2022-09-09T09:31:38;19.10;99.90
9371;DHT22;4725;48.384;8.984;2022-09-09T09:34:07;19.20;99.90
9371;DHT22;4725;48.384;8.984;2022-09-09T09:36:40;19.40;99.90
9371;DHT22;4725;48.384;8.984;2022-09-09T09:39:08;19.50;99.90
9371;DHT22;4725;48.384;8.984;2022-09-09T09:41:36;19.70;99.90
9371;DHT22;4725;48.384;8.984;2022-09-09T09:44:22;19.90;99.90
9371;DHT22;4725;48.384;8.984;2022-09-09T09:46:50;19.80;99.90
9371;DHT22;4725;48.384;8.984;2022-09-09T09:49:17;19.40;99.90
9371;DHT22;4725;48.384;8.984;2022-09-09T09:51:44;18.90;99.90
9371;DHT22;4725;48.384;8.984;2022-09-09T09:54:18;18.90;99.90
9371;DHT22;4725;48.384;8.984;2022-09-09T09:56:48;19.00;99.90
9371;DHT22;4725;48.384;8.984;2022-09-09T09:59:22;19.30;99.90
9371;DHT22;4725;48.384;8.984;2022-09-09T10:01:49;19.20;99.90
9371;DHT22;4725;48.384;8.984;2022-09-09T10:04:19;19.30;99.90
9371;DHT22;4725;48.384;8.984;2022-09-09T10:06:48;19.20;99.90
9371;DHT22;4725;48.384;8.984;2022-09-09T10:09:22;19.00;99.90
9371;DHT22;4725;48.384;8.984;2022-09-09T10:11:55;19.00;99.90
9371;DHT22;4725;48.384;8.984;2022-09-09T10:14:37;19.40;99.90
9371;DHT22;4725;48.384;8.984;2022-09-09T10:17:19;19.80;99.90
9371;DHT22;4725;48.384;8.984;2022-09-09T10:19:59;19.50;99.90
9371;DHT22;4725;48.384;8.984;2022-09-09T10:22:31;19.30;99.90
9371;DHT22;4725;48.384;8.984;2022-09-09T10:25:28;19.20;99.90
9371;DHT22;4725;48.384;8.984;2022-09-09T10:28:18;19.50;99.90
9371;DHT22;4725;48.384;8.984;2022-09-09T10:30:57;20.20;99.90
9371;DHT22;4725;48.384;8.984;2022-09-09T10:33:35;20.40;99.90
9371;DHT22;4725;48.384;8.984;2022-09-09T10:36:09;20.90;99.90
9371;DHT22;4725;48.384;8.984;2022-09-09T10:38:40;20.90;99.90
9371;DHT22;4725;48.384;8.984;2022-09-09T10:41:17;21.50;99.90
9371;DHT22;4725;48.384;8.984;2022-09-09T10:44:12;21.50;99.90
9371;DHT22;4725;48.384;8.984;2022-09-09T10:46:52;21.50;99.90
9371;DHT22;4725;48.384;8.984;2022-09-09T10:49:32;21.30;99.90
9371;DHT22;4725;48.384;8.984;2022-09-09T10:52:09;21.40;99.90
9371;DHT22;4725;48.384;8.984;2022-09-09T10:54:47;21.50;99.90
9371;DHT22;4725;48.384;8.984;2022-09-09T10:57:26;19.90;99.90
9371;DHT22;4725;48.384;8.984;2022-09-09T11:00:01;21.70;99.90
9371;DHT22;4725;48.384;8.984;2022-09-09T11:02:32;22.60;99.90
9371;DHT22;4725;48.384;8.984;2022-09-09T11:05:03;22.60;99.90
9371;DHT22;4725;48.384;8.984;2022-09-09T11:07:36;22.60;99.90
9371;DHT22;4725;48.384;8.984;2022-09-09T11:10:13;22.40;99.90
9371;DHT22;4725;48.384;8.984;2022-09-09T11:12:45;21.90;99.90
9371;DHT22;4725;48.384;8.984;2022-09-09T11:15:18;22.10;99.90
9371;DHT22;4725;48.384;8.984;2022-09-09T11:17:50;22.70;99.90
9371;DHT22;4725;48.384;8.984;2022-09-09T11:20:20;23.30;99.90
9371;DHT22;4725;48.384;8.984;2022-09-09T11:22:50;23.60;99.90
9371;DHT22;4725;48.384;8.984;2022-09-09T11:25:21;23.80;99.90
9371;DHT22;4725;48.384;8.984;2022-09-09T11:28:11;23.70;99.90
9371;DHT22;4725;48.384;8.984;2022-09-09T11:30:50;23.00;99.90
9371;DHT22;4725;48.384;8.984;2022-09-09T11:33:56;21.70;99.90
9371;DHT22;4725;48.384;8.984;2022-09-09T11:42:18;20.00;99.90
9371;DHT22;4725;48.384;8.984;2022-09-09T11:44:45;20.20;99.90
9371;DHT22;4725;48.384;8.984;2022-09-09T11:47:20;20.60;99.90
9371;DHT22;4725;48.384;8.984;2022-09-09T11:49:50;21.20;99.90
9371;DHT22;4725;48.384;8.984;2022-09-09T11:52:24;21.60;99.90
9371;DHT22;4725;48.384;8.984;2022-09-09T11:54:54;21.60;99.90
9371;DHT22;4725;48.384;8.984;2022-09-09T11:57:32;21.70;99.90
9371;DHT22;4725;48.384;8.984;2022-09-09T12:00:02;21.40;99.90
9371;DHT22;4725;48.384;8.984;2022-09-09T12:02:30;21.00;99.90
9371;DHT22;4725;48.384;8.984;2022-09-09T12:05:01;20.90;99.90
9371;DHT22;4725;48.384;8.984;2022-09-09T12:07:34;21.20;99.90
9371;DHT22;4725;48.384;8.984;2022-09-09T12:10:05;21.10;99.90
9371;DHT22;4725;48.384;8.984;2022-09-09T12:12:45;21.30;99.90
9371;DHT22;4725;48.384;8.984;2022-09-09T12:15:22;21.80;99.90
9371;DHT22;4725;48.384;8.984;2022-09-09T12:17:52;21.70;99.90
9371;DHT22;4725;48.384;8.984;2022-09-09T12:20:22;21.60;99.90
9371;DHT22;4725;48.384;8.984;2022-09-09T12:23:10;21.00;99.90
9371;DHT22;4725;48.384;8.984;2022-09-09T12:28:55;18.00;99.90
9371;DHT22;4725;48.384;8.984;2022-09-09T12:31:28;20.20;99.90
9371;DHT22;4725;48.384;8.984;2022-09-09T12:34:06;20.10;99.90
9371;DHT22;4725;48.384;8.984;2022-09-09T12:36:39;19.90;99.90
9371;DHT22;4725;48.384;8.984;2022-09-09T12:39:15;19.90;99.90
9371;DHT22;4725;48.384;8.984;2022-09-09T12:41:51;20.00;99.90
9371;DHT22;4725;48.384;8.984;2022-09-09T12:44:23;20.00;99.90
9371;DHT22;4725;48.384;8.984;2022-09-09T12:46:51;20.10;99.90
9371;DHT22;4725;48.384;8.984;2022-09-09T12:49:29;19.90;99.90
9371;DHT22;4725;48.384;8.984;2022-09-09T12:52:02;19.60;99.90
9371;DHT22;4725;48.384;8.984;2022-09-09T12:54:31;19.60;99.90
9371;DHT22;4725;48.384;8.984;2022-09-09T12:56:58;19.80;99.90
9371;DHT22;4725;48.384;8.984;2022-09-09T12:59:27;20.60;99.90
9371;DHT22;4725;48.384;8.984;2022-09-09T13:02:01;21.40;99.90
9371;DHT22;4725;48.384;8.984;2022-09-09T13:04:28;21.30;99.90
9371;DHT22;4725;48.384;8.984;2022-09-09T13:07:07;21.70;99.90
9371;DHT22;4725;48.384;8.984;2022-09-09T13:12:04;21.70;99.90
9371;DHT22;4725;48.384;8.984;2022-09-09T13:14:35;21.80;99.90
9371;DHT22;4725;48.384;8.984;2022-09-09T13:17:06;22.20;99.90
9371;DHT22;4725;48.384;8.984;2022-09-09T13:19:36;22.60;99.90
9371;DHT22;4725;48.384;8.984;2022-09-09T13:22:13;22.80;99.10
9371;DHT22;4725;48.384;8.984;2022-09-09T13:24:41;22.60;99.70
9371;DHT22;4725;48.384;8.984;2022-09-09T13:27:28;22.00;99.00
9371;DHT22;4725;48.384;8.984;2022-09-09T13:29:55;21.60;99.50
9371;DHT22;4725;48.384;8.984;2022-09-09T13:32:24;22.80;98.90
9371;DHT22;4725;48.384;8.984;2022-09-09T13:34:54;23.70;98.60
9371;DHT22;4725;48.384;8.984;2022-09-09T13:37:26;24.30;99.20
9371;DHT22;4725;48.384;8.984;2022-09-09T13:39:55;24.60;94.60
9371;DHT22;4725;48.384;8.984;2022-09-09T13:42:26;25.00;95.50
9371;DHT22;4725;48.384;8.984;2022-09-09T13:44:55;25.30;94.80
9371;DHT22;4725;48.384;8.984;2022-09-09T13:47:28;25.50;94.90
9371;DHT22;4725;48.384;8.984;2022-09-09T13:49:55;25.50;93.80
9371;DHT22;4725;48.384;8.984;2022-09-09T13:52:24;26.00;93.30
9371;DHT22;4725;48.384;8.984;2022-09-09T13:54:53;25.90;93.40
9371;DHT22;4725;48.384;8.984;2022-09-09T13:57:22;25.30;93.90
9371;DHT22;4725;48.384;8.984;2022-09-09T13:59:51;25.20;94.50
9371;DHT22;4725;48.384;8.984;2022-09-09T14:02:20;25.10;94.10
9371;DHT22;4725;48.384;8.984;2022-09-09T14:04:48;25.40;94.30
9371;DHT22;4725;48.384;8.984;2022-09-09T14:07:20;26.00;94.00
9371;DHT22;4725;48.384;8.984;2022-09-09T14:09:49;25.90;93.30
9371;DHT22;4725;48.384;8.984;2022-09-09T14:12:18;25.80;93.30
9371;DHT22;4725;48.384;8.984;2022-09-09T14:14:45;25.70;94.10
9371;DHT22;4725;48.384;8.984;2022-09-09T14:17:12;25.70;93.40
9371;DHT22;4725;48.384;8.984;2022-09-09T14:19:39;24.90;93.50
9371;DHT22;4725;48.384;8.984;2022-09-09T14:22:06;24.60;93.80
9371;DHT22;4725;48.384;8.984;2022-09-09T14:24:33;24.60;94.10
9371;DHT22;4725;48.384;8.984;2022-09-09T14:27:03;24.80;93.70
9371;DHT22;4725;48.384;8.984;2022-09-09T14:29:30;24.80;94.80
9371;DHT22;4725;48.384;8.984;2022-09-09T14:31:58;25.00;93.20
9371;DHT22;4725;48.384;8.984;2022-09-09T14:34:26;25.30;93.30
9371;DHT22;4725;48.384;8.984;2022-09-09T14:36:53;25.40;93.30
9371;DHT22;4725;48.384;8.984;2022-09-09T14:39:20;25.40;93.50
9371;DHT22;4725;48.384;8.984;2022-09-09T14:41:47;24.90;92.70
9371;DHT22;4725;48.384;8.984;2022-09-09T14:44:17;24.70;93.10
9371;DHT22;4725;48.384;8.984;2022-09-09T14:46:44;23.80;94.00
9371;DHT22;4725;48.384;8.984;2022-09-09T14:49:11;22.80;94.40
9371;DHT22;4725;48.384;8.984;2022-09-09T14:51:39;22.80;95.20
9371;DHT22;4725;48.384;8.984;2022-09-09T14:54:06;22.90;95.80
9371;DHT22;4725;48.384;8.984;2022-09-09T14:56:33;23.90;94.80
9371;DHT22;4725;48.384;8.984;2022-09-09T14:59:01;23.80;94.80
9371;DHT22;4725;48.384;8.984;2022-09-09T15:01:30;22.20;96.30
9371;DHT22;4725;48.384;8.984;2022-09-09T15:03:59;22.20;96.70
9371;DHT22;4725;48.384;8.984;2022-09-09T15:06:28;21.60;96.90
9371;DHT22;4725;48.384;8.984;2022-09-09T15:08:56;21.60;97.10
9371;DHT22;4725;48.384;8.984;2022-09-09T15:11:26;21.60;97.40
9371;DHT22;4725;48.384;8.984;2022-09-09T15:13:54;21.60;97.80
9371;DHT22;4725;48.384;8.984;2022-09-09T15:16:23;21.20;97.50
9371;DHT22;4725;48.384;8.984;2022-09-09T15:18:54;20.80;98.40
9371;DHT22;4725;48.384;8.984;2022-09-09T15:21:23;20.00;97.00
9371;DHT22;4725;48.384;8.984;2022-09-09T15:23:50;19.90;97.50
9371;DHT22;4725;48.384;8.984;2022-09-09T15:26:18;19.60;98.30
9371;DHT22;4725;48.384;8.984;2022-09-09T15:28:46;19.50;98.70
9371;DHT22;4725;48.384;8.984;2022-09-09T15:31:17;19.30;98.90
9371;DHT22;4725;48.384;8.984;2022-09-09T15:33:47;19.30;99.10
9371;DHT22;4725;48.384;8.984;2022-09-09T15:36:17;19.40;99.60
9371;DHT22;4725;48.384;8.984;2022-09-09T15:38:44;19.60;99.70
9371;DHT22;4725;48.384;8.984;2022-09-09T15:41:12;20.50;99.40
9371;DHT22;4725;48.384;8.984;2022-09-09T15:43:39;20.50;99.70
9371;DHT22;4725;48.384;8.984;2022-09-09T15:46:24;20.50;99.50
9371;DHT22;4725;48.384;8.984;2022-09-09T15:48:53;19.80;99.90
9371;DHT22;4725;48.384;8.984;2022-09-09T15:51:22;19.30;99.90
9371;DHT22;4725;48.384;8.984;2022-09-09T15:53:54;19.20;99.90
9371;DHT22;4725;48.384;8.984;2022-09-09T15:56:22;18.90;99.90
9371;DHT22;4725;48.384;8.984;2022-09-09T15:58:49;18.60;99.90
9371;DHT22;4725;48.384;8.984;2022-09-09T16:01:18;18.80;99.90
9371;DHT22;4725;48.384;8.984;2022-09-09T16:03:45;18.80;99.90
9371;DHT22;4725;48.384;8.984;2022-09-09T16:06:13;20.60;99.90
9371;DHT22;4725;48.384;8.984;2022-09-09T16:08:43;19.90;99.90
9371;DHT22;4725;48.384;8.984;2022-09-09T16:11:12;19.90;99.90
9371;DHT22;4725;48.384;8.984;2022-09-09T16:13:41;19.90;99.90
9371;DHT22;4725;48.384;8.984;2022-09-09T16:16:10;19.70;99.90
9371;DHT22;4725;48.384;8.984;2022-09-09T16:18:39;19.40;99.90
9371;DHT22;4725;48.384;8.984;2022-09-09T16:21:07;19.40;99.90
9371;DHT22;4725;48.384;8.984;2022-09-09T16:23:34;19.20;99.90
9371;DHT22;4725;48.384;8.984;2022-09-09T16:26:03;19.00;99.90
9371;DHT22;4725;48.384;8.984;2022-09-09T16:28:30;18.80;99.90
9371;DHT22;4725;48.384;8.984;2022-09-09T16:30:57;18.80;99.90
9371;DHT22;4725;48.384;8.984;2022-09-09T16:33:24;18.80;99.90
9371;DHT22;4725;48.384;8.984;2022-09-09T16:35:52;18.80;99.90
9371;DHT22;4725;48.384;8.984;2022-09-09T16:38:19;18.70;99.90